sensor_id;sensor_type;location;lat;lon;timestamp;temperature;humidity
48454;DHT22;34261;55.678;12.464;2023-07-24T00:00:09;18.20;99.90
48454;DHT22;34261;55.678;12.464;2023-07-24T00:02:35;18.20;99.90
48454;DHT22;34261;55.678;12.464;2023-07-24T00:05:00;18.20;99.90
48454;DHT22;34261;55.678;12.464;2023-07-24T00:07:26;18.20;99.90
48454;DHT22;34261;55.678;12.464;2023-07-24T00:09:51;18.20;99.90
48454;DHT22;34261;55.678;12.464;2023-07-24T00:12:18;18.20;99.90
48454;DHT22;34261;55.678;12.464;2023-07-24T00:14:43;18.20;99.90
48454;DHT22;34261;55.678;12.464;2023-07-24T00:17:09;18.20;99.90
48454;DHT22;34261;55.678;12.464;2023-07-24T00:19:34;18.20;99.90
48454;DHT22;34261;55.678;12.464;2023-07-24T00:22:00;18.20;99.90
48454;DHT22;34261;55.678;12.464;2023-07-24T00:24:25;18.20;99.90
48454;DHT22;34261;55.678;12.464;2023-07-24T00:26:51;18.20;99.90
48454;DHT22;34261;55.678;12.464;2023-07-24T00:29:16;18.20;99.90
48454;DHT22;34261;55.678;12.464;2023-07-24T00:31:42;18.20;99.90
48454;DHT22;34261;55.678;12.464;2023-07-24T00:34:07;18.20;99.90
48454;DHT22;34261;55.678;12.464;2023-07-24T00:36:33;18.30;99.90
48454;DHT22;34261;55.678;12.464;2023-07-24T00:38:58;18.30;99.90
48454;DHT22;34261;55.678;12.464;2023-07-24T00:41:24;18.30;99.90
48454;DHT22;34261;55.678;12.464;2023-07-24T00:43:49;18.30;99.90
48454;DHT22;34261;55.678;12.464;2023-07-24T00:46:15;18.40;99.90
48454;DHT22;34261;55.678;12.464;2023-07-24T00:48:41;18.30;99.90
48454;DHT22;34261;55.678;12.464;2023-07-24T00:51:06;18.30;99.90
48454;DHT22;34261;55.678;12.464;2023-07-24T00:53:32;18.30;99.90
48454;DHT22;34261;55.678;12.464;2023-07-24T00:55:58;18.30;99.90
48454;DHT22;34261;55.678;12.464;2023-07-24T00:58:23;18.30;99.90
48454;DHT22;34261;55.678;12.464;2023-07-24T01:00:50;18.40;99.90
48454;DHT22;34261;55.678;12.464;2023-07-24T01:03:15;18.40;99.90
48454;DHT22;34261;55.678;12.464;2023-07-24T01:05:41;18.40;99.90
48454;DHT22;34261;55.678;12.464;2023-07-24T01:08:07;18.40;99.90
48454;DHT22;34261;55.678;12.464;2023-07-24T01:10:33;18.40;99.90
48454;DHT22;34261;55.678;12.464;2023-07-24T01:15:32;18.40;99.90
48454;DHT22;34261;55.678;12.464;2023-07-24T01:18:06;18.50;99.90
48454;DHT22;34261;55.678;12.464;2023-07-24T01:20:36;18.50;99.90
48454;DHT22;34261;55.678;12.464;2023-07-24T01:25:51;18.40;99.90
48454;DHT22;34261;55.678;12.464;2023-07-24T01:28:19;18.40;99.90
48454;DHT22;34261;55.678;12.464;2023-07-24T01:30:44;18.40;99.90
48454;DHT22;34261;55.678;12.464;2023-07-24T01:33:10;18.40;99.90
48454;DHT22;34261;55.678;12.464;2023-07-24T01:35:36;18.40;99.90
48454;DHT22;34261;55.678;12.464;2023-07-24T01:38:04;18.40;99.90
48454;DHT22;34261;55.678;12.464;2023-07-24T01:40:30;18.40;99.90
48454;DHT22;34261;55.678;12.464;2023-07-24T01:42:56;18.30;99.90
48454;DHT22;34261;55.678;12.464;2023-07-24T01:45:24;18.20;99.90
48454;DHT22;34261;55.678;12.464;2023-07-24T01:47:50;18.30;99.90
48454;DHT22;34261;55.678;12.464;2023-07-24T01:50:15;18.30;99.90
48454;DHT22;34261;55.678;12.464;2023-07-24T01:52:41;18.20;99.90
48454;DHT22;34261;55.678;12.464;2023-07-24T01:55:07;18.20;99.90
48454;DHT22;34261;55.678;12.464;2023-07-24T01:57:34;18.30;99.90
48454;DHT22;34261;55.678;12.464;2023-07-24T01:59:59;18.30;99.90
48454;DHT22;34261;55.678;12.464;2023-07-24T02:02:25;18.20;99.90
48454;DHT22;34261;55.678;12.464;2023-07-24T02:04:50;18.20;99.90
48454;DHT22;34261;55.678;12.464;2023-07-24T02:07:16;18.20;99.90
48454;DHT22;34261;55.678;12.464;2023-07-24T02:09:42;18.20;99.90
48454;DHT22;34261;55.678;12.464;2023-07-24T02:12:07;18.20;99.90
48454;DHT22;34261;55.678;12.464;2023-07-24T02:14:33;18.20;99.90
48454;DHT22;34261;55.678;12.464;2023-07-24T02:16:58;18.20;99.90
48454;DHT22;34261;55.678;12.464;2023-07-24T02:19:24;18.20;99.90
48454;DHT22;34261;55.678;12.464;2023-07-24T02:21:50;18.20;99.90
48454;DHT22;34261;55.678;12.464;2023-07-24T02:24:15;18.20;99.90
48454;DHT22;34261;55.678;12.464;2023-07-24T02:26:41;18.20;99.90
48454;DHT22;34261;55.678;12.464;2023-07-24T02:29:06;18.20;99.90
48454;DHT22;34261;55.678;12.464;2023-07-24T02:31:32;18.20;99.90
48454;DHT22;34261;55.678;12.464;2023-07-24T02:33:57;18.20;99.90
48454;DHT22;34261;55.678;12.464;2023-07-24T02:36:23;18.20;99.90
48454;DHT22;34261;55.678;12.464;2023-07-24T02:38:48;18.20;99.90
48454;DHT22;34261;55.678;12.464;2023-07-24T02:41:14;18.20;99.90
48454;DHT22;34261;55.678;12.464;2023-07-24T02:43:39;18.20;99.90
48454;DHT22;34261;55.678;12.464;2023-07-24T02:46:05;18.20;99.90
48454;DHT22;34261;55.678;12.464;2023-07-24T02:48:30;18.20;99.90
48454;DHT22;34261;55.678;12.464;2023-07-24T02:50:56;18.30;99.90
48454;DHT22;34261;55.678;12.464;2023-07-24T02:53:21;18.20;99.90
48454;DHT22;34261;55.678;12.464;2023-07-24T02:55:47;18.20;99.90
48454;DHT22;34261;55.678;12.464;2023-07-24T02:58:13;18.20;99.90
48454;DHT22;34261;55.678;12.464;2023-07-24T03:00:39;18.20;99.90
48454;DHT22;34261;55.678;12.464;2023-07-24T03:03:05;18.20;99.90
48454;DHT22;34261;55.678;12.464;2023-07-24T03:05:31;18.20;99.90
48454;DHT22;34261;55.678;12.464;2023-07-24T03:07:56;18.20;99.90
48454;DHT22;34261;55.678;12.464;2023-07-24T03:10:23;18.30;99.90
48454;DHT22;34261;55.678;12.464;2023-07-24T03:12:48;18.20;99.90
48454;DHT22;34261;55.678;12.464;2023-07-24T03:15:14;18.20;99.90
48454;DHT22;34261;55.678;12.464;2023-07-24T03:17:40;18.30;99.90
48454;DHT22;34261;55.678;12.464;2023-07-24T03:20:14;18.30;99.90
48454;DHT22;34261;55.678;12.464;2023-07-24T03:22:41;18.30;99.90
48454;DHT22;34261;55.678;12.464;2023-07-24T03:25:07;18.30;99.90
48454;DHT22;34261;55.678;12.464;2023-07-24T03:27:33;18.30;99.90
48454;DHT22;34261;55.678;12.464;2023-07-24T03:29:58;18.30;99.90
48454;DHT22;34261;55.678;12.464;2023-07-24T03:32:24;18.30;99.90
48454;DHT22;34261;55.678;12.464;2023-07-24T03:34:49;18.30;99.90
48454;DHT22;34261;55.678;12.464;2023-07-24T03:37:15;18.30;99.90
48454;DHT22;34261;55.678;12.464;2023-07-24T03:39:40;18.30;99.90
48454;DHT22;34261;55.678;12.464;2023-07-24T03:42:06;18.30;99.90
48454;DHT22;34261;55.678;12.464;2023-07-24T03:44:31;18.30;99.90
48454;DHT22;34261;55.678;12.464;2023-07-24T03:46:57;18.30;99.90
48454;DHT22;34261;55.678;12.464;2023-07-24T03:49:22;18.30;99.90
48454;DHT22;34261;55.678;12.464;2023-07-24T03:51:48;18.30;99.90
48454;DHT22;34261;55.678;12.464;2023-07-24T03:54:14;18.30;99.90
48454;DHT22;34261;55.678;12.464;2023-07-24T03:56:39;18.30;99.90
48454;DHT22;34261;55.678;12.464;2023-07-24T03:59:05;18.30;99.90
48454;DHT22;34261;55.678;12.464;2023-07-24T04:01:31;18.30;99.90
48454;DHT22;34261;55.678;12.464;2023-07-24T04:03:58;18.30;99.90
48454;DHT22;34261;55.678;12.464;2023-07-24T04:06:23;18.30;99.90
48454;DHT22;34261;55.678;12.464;2023-07-24T04:08:49;18.40;99.90
48454;DHT22;34261;55.678;12.464;2023-07-24T04:11:14;18.40;99.90
48454;DHT22;34261;55.678;12.464;2023-07-24T04:13:40;18.30;99.90
48454;DHT22;34261;55.678;12.464;2023-07-24T04:16:05;18.40;99.90
48454;DHT22;34261;55.678;12.464;2023-07-24T04:18:31;18.40;99.90
48454;DHT22;34261;55.678;12.464;2023-07-24T04:20:57;18.40;99.90
48454;DHT22;34261;55.678;12.464;2023-07-24T04:23:22;18.40;99.90
48454;DHT22;34261;55.678;12.464;2023-07-24T04:25:51;18.40;99.90
48454;DHT22;34261;55.678;12.464;2023-07-24T04:28:16;18.40;99.90
48454;DHT22;34261;55.678;12.464;2023-07-24T04:30:42;18.40;99.90
48454;DHT22;34261;55.678;12.464;2023-07-24T04:33:07;18.40;99.90
48454;DHT22;34261;55.678;12.464;2023-07-24T04:35:33;18.40;99.90
48454;DHT22;34261;55.678;12.464;2023-07-24T04:37:59;18.40;99.90
48454;DHT22;34261;55.678;12.464;2023-07-24T04:40:24;18.40;99.90
48454;DHT22;34261;55.678;12.464;2023-07-24T04:42:50;18.40;99.90
48454;DHT22;34261;55.678;12.464;2023-07-24T04:45:15;18.40;99.90
48454;DHT22;34261;55.678;12.464;2023-07-24T04:47:41;18.40;99.90
48454;DHT22;34261;55.678;12.464;2023-07-24T04:50:07;18.40;99.90
48454;DHT22;34261;55.678;12.464;2023-07-24T04:52:33;18.50;99.90
48454;DHT22;34261;55.678;12.464;2023-07-24T04:54:58;18.50;99.90
48454;DHT22;34261;55.678;12.464;2023-07-24T04:57:24;18.40;99.90
48454;DHT22;34261;55.678;12.464;2023-07-24T04:59:49;18.40;99.90
48454;DHT22;34261;55.678;12.464;2023-07-24T05:02:15;18.50;99.90
48454;DHT22;34261;55.678;12.464;2023-07-24T05:04:40;18.50;99.90
48454;DHT22;34261;55.678;12.464;2023-07-24T05:07:07;18.50;99.90
48454;DHT22;34261;55.678;12.464;2023-07-24T05:09:32;18.50;99.90
48454;DHT22;34261;55.678;12.464;2023-07-24T05:11:58;18.50;99.90
48454;DHT22;34261;55.678;12.464;2023-07-24T05:14:23;18.50;99.90
48454;DHT22;34261;55.678;12.464;2023-07-24T05:16:49;18.60;99.90
48454;DHT22;34261;55.678;12.464;2023-07-24T05:19:14;18.60;99.90
48454;DHT22;34261;55.678;12.464;2023-07-24T05:21:40;18.60;99.90
48454;DHT22;34261;55.678;12.464;2023-07-24T05:24:05;18.60;99.90
48454;DHT22;34261;55.678;12.464;2023-07-24T05:26:31;18.60;99.90
48454;DHT22;34261;55.678;12.464;2023-07-24T05:28:56;18.60;99.90
48454;DHT22;34261;55.678;12.464;2023-07-24T05:31:22;18.70;99.90
48454;DHT22;34261;55.678;12.464;2023-07-24T05:33:47;18.70;99.90
48454;DHT22;34261;55.678;12.464;2023-07-24T05:36:13;18.70;99.90
48454;DHT22;34261;55.678;12.464;2023-07-24T05:38:39;18.70;99.90
48454;DHT22;34261;55.678;12.464;2023-07-24T05:41:04;18.70;99.90
48454;DHT22;34261;55.678;12.464;2023-07-24T05:43:30;18.80;99.90
48454;DHT22;34261;55.678;12.464;2023-07-24T05:45:57;18.90;99.90
48454;DHT22;34261;55.678;12.464;2023-07-24T05:48:23;18.90;99.90
48454;DHT22;34261;55.678;12.464;2023-07-24T05:50:50;18.90;99.90
48454;DHT22;34261;55.678;12.464;2023-07-24T05:53:15;18.90;99.90
48454;DHT22;34261;55.678;12.464;2023-07-24T05:55:41;19.00;99.90
48454;DHT22;34261;55.678;12.464;2023-07-24T05:58:08;19.00;99.90
48454;DHT22;34261;55.678;12.464;2023-07-24T06:00:33;18.90;99.90
48454;DHT22;34261;55.678;12.464;2023-07-24T06:02:59;18.90;99.90
48454;DHT22;34261;55.678;12.464;2023-07-24T06:05:24;18.90;99.90
48454;DHT22;34261;55.678;12.464;2023-07-24T06:07:50;18.90;99.90
48454;DHT22;34261;55.678;12.464;2023-07-24T06:10:15;19.00;99.90
48454;DHT22;34261;55.678;12.464;2023-07-24T06:12:41;19.10;99.90
48454;DHT22;34261;55.678;12.464;2023-07-24T06:15:07;19.10;99.90
48454;DHT22;34261;55.678;12.464;2023-07-24T06:17:33;19.10;99.90
48454;DHT22;34261;55.678;12.464;2023-07-24T06:19:58;19.20;99.90
48454;DHT22;34261;55.678;12.464;2023-07-24T06:22:24;19.30;99.90
48454;DHT22;34261;55.678;12.464;2023-07-24T06:24:50;19.40;99.90
48454;DHT22;34261;55.678;12.464;2023-07-24T06:27:15;19.40;99.90
48454;DHT22;34261;55.678;12.464;2023-07-24T06:29:41;19.40;99.90
48454;DHT22;34261;55.678;12.464;2023-07-24T06:32:07;19.40;99.90
48454;DHT22;34261;55.678;12.464;2023-07-24T06:34:33;19.40;99.90
48454;DHT22;34261;55.678;12.464;2023-07-24T06:36:59;19.40;99.90
48454;DHT22;34261;55.678;12.464;2023-07-24T06:39:24;19.50;99.90
48454;DHT22;34261;55.678;12.464;2023-07-24T06:41:53;19.60;99.90
48454;DHT22;34261;55.678;12.464;2023-07-24T06:44:20;19.50;99.90
48454;DHT22;34261;55.678;12.464;2023-07-24T06:46:46;19.50;99.90
48454;DHT22;34261;55.678;12.464;2023-07-24T06:49:11;19.70;99.90
48454;DHT22;34261;55.678;12.464;2023-07-24T06:51:37;19.70;99.90
48454;DHT22;34261;55.678;12.464;2023-07-24T06:54:04;19.70;99.90
48454;DHT22;34261;55.678;12.464;2023-07-24T06:56:29;19.70;99.90
48454;DHT22;34261;55.678;12.464;2023-07-24T06:58:55;19.60;99.90
48454;DHT22;34261;55.678;12.464;2023-07-24T07:01:21;19.60;99.90
48454;DHT22;34261;55.678;12.464;2023-07-24T07:03:46;19.60;99.90
48454;DHT22;34261;55.678;12.464;2023-07-24T07:06:11;19.50;99.90
48454;DHT22;34261;55.678;12.464;2023-07-24T07:08:37;19.50;99.90
48454;DHT22;34261;55.678;12.464;2023-07-24T07:11:03;19.60;99.90
48454;DHT22;34261;55.678;12.464;2023-07-24T07:13:29;19.80;99.90
48454;DHT22;34261;55.678;12.464;2023-07-24T07:15:55;19.80;99.90
48454;DHT22;34261;55.678;12.464;2023-07-24T07:18:20;19.70;99.90
48454;DHT22;34261;55.678;12.464;2023-07-24T07:20:51;19.70;99.90
48454;DHT22;34261;55.678;12.464;2023-07-24T07:23:17;19.80;99.90
48454;DHT22;34261;55.678;12.464;2023-07-24T07:25:43;19.80;99.90
48454;DHT22;34261;55.678;12.464;2023-07-24T07:28:16;19.90;99.90
48454;DHT22;34261;55.678;12.464;2023-07-24T07:30:42;20.20;99.90
48454;DHT22;34261;55.678;12.464;2023-07-24T07:33:08;20.50;99.90
48454;DHT22;34261;55.678;12.464;2023-07-24T07:35:35;20.60;99.90
48454;DHT22;34261;55.678;12.464;2023-07-24T07:38:01;20.90;99.90
48454;DHT22;34261;55.678;12.464;2023-07-24T07:40:27;21.10;99.90
48454;DHT22;34261;55.678;12.464;2023-07-24T07:42:54;21.30;99.90
48454;DHT22;34261;55.678;12.464;2023-07-24T07:45:20;21.40;99.90
48454;DHT22;34261;55.678;12.464;2023-07-24T07:47:45;21.40;99.90
48454;DHT22;34261;55.678;12.464;2023-07-24T07:50:11;21.40;99.90
48454;DHT22;34261;55.678;12.464;2023-07-24T07:52:37;21.40;99.90
48454;DHT22;34261;55.678;12.464;2023-07-24T07:55:03;21.50;99.90
48454;DHT22;34261;55.678;12.464;2023-07-24T07:57:28;21.40;99.90
48454;DHT22;34261;55.678;12.464;2023-07-24T07:59:54;21.30;99.90
48454;DHT22;34261;55.678;12.464;2023-07-24T08:02:19;21.20;99.90
48454;DHT22;34261;55.678;12.464;2023-07-24T08:04:46;21.50;99.90
48454;DHT22;34261;55.678;12.464;2023-07-24T08:07:11;21.60;99.90
48454;DHT22;34261;55.678;12.464;2023-07-24T08:09:37;21.60;99.90
48454;DHT22;34261;55.678;12.464;2023-07-24T08:12:04;21.60;99.90
48454;DHT22;34261;55.678;12.464;2023-07-24T08:14:30;21.80;99.90
48454;DHT22;34261;55.678;12.464;2023-07-24T08:16:55;22.00;99.90
48454;DHT22;34261;55.678;12.464;2023-07-24T08:19:21;22.00;99.90
48454;DHT22;34261;55.678;12.464;2023-07-24T08:21:47;22.10;99.90
48454;DHT22;34261;55.678;12.464;2023-07-24T08:24:13;21.80;99.90
48454;DHT22;34261;55.678;12.464;2023-07-24T08:26:38;21.40;99.90
48454;DHT22;34261;55.678;12.464;2023-07-24T08:29:05;21.20;99.90
48454;DHT22;34261;55.678;12.464;2023-07-24T08:31:30;21.10;99.90
48454;DHT22;34261;55.678;12.464;2023-07-24T08:33:56;20.90;99.90
48454;DHT22;34261;55.678;12.464;2023-07-24T08:36:21;20.90;99.90
48454;DHT22;34261;55.678;12.464;2023-07-24T08:38:47;21.00;99.90
48454;DHT22;34261;55.678;12.464;2023-07-24T08:41:14;21.00;99.90
48454;DHT22;34261;55.678;12.464;2023-07-24T08:43:41;21.10;99.90
48454;DHT22;34261;55.678;12.464;2023-07-24T08:46:08;21.10;99.90
48454;DHT22;34261;55.678;12.464;2023-07-24T08:48:35;21.00;99.90
48454;DHT22;34261;55.678;12.464;2023-07-24T08:51:09;21.00;99.90
48454;DHT22;34261;55.678;12.464;2023-07-24T08:53:36;20.90;99.90
48454;DHT22;34261;55.678;12.464;2023-07-24T08:56:04;20.90;99.90
48454;DHT22;34261;55.678;12.464;2023-07-24T08:58:30;20.80;99.90
48454;DHT22;34261;55.678;12.464;2023-07-24T09:00:57;20.90;99.90
48454;DHT22;34261;55.678;12.464;2023-07-24T09:03:23;21.00;99.90
48454;DHT22;34261;55.678;12.464;2023-07-24T09:05:49;21.10;99.90
48454;DHT22;34261;55.678;12.464;2023-07-24T09:08:14;21.00;99.90
48454;DHT22;34261;55.678;12.464;2023-07-24T09:10:40;21.00;99.90
48454;DHT22;34261;55.678;12.464;2023-07-24T09:13:06;21.00;99.90
48454;DHT22;34261;55.678;12.464;2023-07-24T09:15:43;21.10;99.90
48454;DHT22;34261;55.678;12.464;2023-07-24T09:18:09;21.00;99.90
48454;DHT22;34261;55.678;12.464;2023-07-24T09:20:43;20.90;99.90
48454;DHT22;34261;55.678;12.464;2023-07-24T09:23:09;21.10;99.90
48454;DHT22;34261;55.678;12.464;2023-07-24T09:25:37;21.10;99.90
48454;DHT22;34261;55.678;12.464;2023-07-24T09:28:10;21.10;99.90
48454;DHT22;34261;55.678;12.464;2023-07-24T09:30:37;21.00;99.90
48454;DHT22;34261;55.678;12.464;2023-07-24T09:33:03;21.10;99.90
48454;DHT22;34261;55.678;12.464;2023-07-24T09:35:28;21.10;99.90
48454;DHT22;34261;55.678;12.464;2023-07-24T09:38:08;21.10;99.90
48454;DHT22;34261;55.678;12.464;2023-07-24T09:40:42;21.20;99.90
48454;DHT22;34261;55.678;12.464;2023-07-24T09:43:21;21.30;99.90
48454;DHT22;34261;55.678;12.464;2023-07-24T09:45:49;21.00;99.90
48454;DHT22;34261;55.678;12.464;2023-07-24T09:48:16;21.30;99.90
48454;DHT22;34261;55.678;12.464;2023-07-24T09:50:45;21.50;99.90
48454;DHT22;34261;55.678;12.464;2023-07-24T09:53:18;21.50;99.90
48454;DHT22;34261;55.678;12.464;2023-07-24T09:56:17;21.60;99.90
48454;DHT22;34261;55.678;12.464;2023-07-24T09:58:45;21.70;99.90
48454;DHT22;34261;55.678;12.464;2023-07-24T10:01:11;21.60;99.90
48454;DHT22;34261;55.678;12.464;2023-07-24T10:03:46;21.80;99.90
48454;DHT22;34261;55.678;12.464;2023-07-24T10:06:12;21.80;99.90
48454;DHT22;34261;55.678;12.464;2023-07-24T10:08:40;22.20;99.90
48454;DHT22;34261;55.678;12.464;2023-07-24T10:11:07;22.20;99.90
48454;DHT22;34261;55.678;12.464;2023-07-24T10:13:34;22.10;99.90
48454;DHT22;34261;55.678;12.464;2023-07-24T10:16:02;22.00;99.90
48454;DHT22;34261;55.678;12.464;2023-07-24T10:18:29;21.90;99.90
48454;DHT22;34261;55.678;12.464;2023-07-24T10:21:05;21.80;99.90
48454;DHT22;34261;55.678;12.464;2023-07-24T10:23:33;21.70;99.90
48454;DHT22;34261;55.678;12.464;2023-07-24T10:26:03;21.80;99.90
48454;DHT22;34261;55.678;12.464;2023-07-24T10:28:37;21.90;99.90
48454;DHT22;34261;55.678;12.464;2023-07-24T10:31:25;21.90;99.90
48454;DHT22;34261;55.678;12.464;2023-07-24T10:33:52;21.80;99.90
48454;DHT22;34261;55.678;12.464;2023-07-24T10:36:20;21.60;99.90
48454;DHT22;34261;55.678;12.464;2023-07-24T10:38:52;21.60;99.90
48454;DHT22;34261;55.678;12.464;2023-07-24T10:41:18;21.60;99.90
48454;DHT22;34261;55.678;12.464;2023-07-24T10:43:51;21.80;99.90
48454;DHT22;34261;55.678;12.464;2023-07-24T10:46:19;22.00;99.90
48454;DHT22;34261;55.678;12.464;2023-07-24T10:48:47;22.10;99.90
48454;DHT22;34261;55.678;12.464;2023-07-24T10:51:13;22.10;99.90
48454;DHT22;34261;55.678;12.464;2023-07-24T10:53:45;21.90;99.90
48454;DHT22;34261;55.678;12.464;2023-07-24T10:56:11;22.10;99.90
48454;DHT22;34261;55.678;12.464;2023-07-24T10:58:36;22.00;99.90
48454;DHT22;34261;55.678;12.464;2023-07-24T11:01:05;22.10;99.90
48454;DHT22;34261;55.678;12.464;2023-07-24T11:03:31;22.50;99.90
48454;DHT22;34261;55.678;12.464;2023-07-24T11:05:58;22.50;99.90
48454;DHT22;34261;55.678;12.464;2023-07-24T11:08:24;22.50;99.90
48454;DHT22;34261;55.678;12.464;2023-07-24T11:10:55;22.50;99.90
48454;DHT22;34261;55.678;12.464;2023-07-24T11:13:23;22.40;99.90
48454;DHT22;34261;55.678;12.464;2023-07-24T11:15:49;22.40;99.90
48454;DHT22;34261;55.678;12.464;2023-07-24T11:18:16;22.40;99.90
48454;DHT22;34261;55.678;12.464;2023-07-24T11:20:53;22.40;99.90
48454;DHT22;34261;55.678;12.464;2023-07-24T11:23:19;22.50;99.90
48454;DHT22;34261;55.678;12.464;2023-07-24T11:25:46;22.30;99.90
48454;DHT22;34261;55.678;12.464;2023-07-24T11:28:13;22.90;99.90
48454;DHT22;34261;55.678;12.464;2023-07-24T11:30:40;23.60;99.90
48454;DHT22;34261;55.678;12.464;2023-07-24T11:33:09;23.50;99.90
48454;DHT22;34261;55.678;12.464;2023-07-24T11:35:36;23.20;99.90
48454;DHT22;34261;55.678;12.464;2023-07-24T11:38:02;22.90;99.90
48454;DHT22;34261;55.678;12.464;2023-07-24T11:43:04;22.90;99.90
48454;DHT22;34261;55.678;12.464;2023-07-24T11:45:31;23.00;99.90
48454;DHT22;34261;55.678;12.464;2023-07-24T11:48:09;23.10;99.90
48454;DHT22;34261;55.678;12.464;2023-07-24T11:50:42;23.20;99.90
48454;DHT22;34261;55.678;12.464;2023-07-24T11:53:19;23.40;99.90
48454;DHT22;34261;55.678;12.464;2023-07-24T11:55:45;23.50;99.90
48454;DHT22;34261;55.678;12.464;2023-07-24T11:58:14;23.30;99.90
48454;DHT22;34261;55.678;12.464;2023-07-24T12:00:40;23.30;99.90
48454;DHT22;34261;55.678;12.464;2023-07-24T12:03:06;23.10;99.90
48454;DHT22;34261;55.678;12.464;2023-07-24T12:05:43;23.10;99.90
48454;DHT22;34261;55.678;12.464;2023-07-24T12:08:09;23.00;99.90
48454;DHT22;34261;55.678;12.464;2023-07-24T12:10:37;23.00;99.90
48454;DHT22;34261;55.678;12.464;2023-07-24T12:13:03;23.00;99.90
48454;DHT22;34261;55.678;12.464;2023-07-24T12:15:29;23.00;99.90
48454;DHT22;34261;55.678;12.464;2023-07-24T12:17:54;23.20;99.90
48454;DHT22;34261;55.678;12.464;2023-07-24T12:20:22;23.50;99.90
48454;DHT22;34261;55.678;12.464;2023-07-24T12:22:47;23.30;99.90
48454;DHT22;34261;55.678;12.464;2023-07-24T12:25:13;23.40;99.90
48454;DHT22;34261;55.678;12.464;2023-07-24T12:27:39;24.10;99.90
48454;DHT22;34261;55.678;12.464;2023-07-24T12:30:07;24.50;99.90
48454;DHT22;34261;55.678;12.464;2023-07-24T12:32:32;24.20;99.80
48454;DHT22;34261;55.678;12.464;2023-07-24T12:34:58;24.10;99.90
48454;DHT22;34261;55.678;12.464;2023-07-24T12:37:23;24.00;99.90
48454;DHT22;34261;55.678;12.464;2023-07-24T12:39:49;24.10;99.90
48454;DHT22;34261;55.678;12.464;2023-07-24T12:42:16;24.00;99.90
48454;DHT22;34261;55.678;12.464;2023-07-24T12:44:42;23.90;99.90
48454;DHT22;34261;55.678;12.464;2023-07-24T12:47:08;23.90;99.90
48454;DHT22;34261;55.678;12.464;2023-07-24T12:49:34;24.20;99.90
48454;DHT22;34261;55.678;12.464;2023-07-24T12:51:59;24.20;99.90
48454;DHT22;34261;55.678;12.464;2023-07-24T12:54:25;24.10;99.90
48454;DHT22;34261;55.678;12.464;2023-07-24T12:56:51;24.10;99.90
48454;DHT22;34261;55.678;12.464;2023-07-24T12:59:17;24.10;99.90
48454;DHT22;34261;55.678;12.464;2023-07-24T13:01:43;23.60;99.90
48454;DHT22;34261;55.678;12.464;2023-07-24T13:04:09;23.60;99.90
48454;DHT22;34261;55.678;12.464;2023-07-24T13:06:34;23.60;99.90
48454;DHT22;34261;55.678;12.464;2023-07-24T13:09:00;23.90;99.90
48454;DHT22;34261;55.678;12.464;2023-07-24T13:11:25;23.80;99.90
48454;DHT22;34261;55.678;12.464;2023-07-24T13:13:53;23.70;99.90
48454;DHT22;34261;55.678;12.464;2023-07-24T13:16:19;23.70;99.90
48454;DHT22;34261;55.678;12.464;2023-07-24T13:18:44;24.40;99.90
48454;DHT22;34261;55.678;12.464;2023-07-24T13:21:10;24.20;99.90
48454;DHT22;34261;55.678;12.464;2023-07-24T13:23:35;24.80;99.90
48454;DHT22;34261;55.678;12.464;2023-07-24T13:26:01;24.50;99.90
48454;DHT22;34261;55.678;12.464;2023-07-24T13:28:27;24.20;99.90
48454;DHT22;34261;55.678;12.464;2023-07-24T13:30:53;23.90;99.90
48454;DHT22;34261;55.678;12.464;2023-07-24T13:33:18;23.90;99.90
48454;DHT22;34261;55.678;12.464;2023-07-24T13:35:44;23.70;99.90
48454;DHT22;34261;55.678;12.464;2023-07-24T13:38:10;23.60;99.90
48454;DHT22;34261;55.678;12.464;2023-07-24T13:40:36;23.60;99.90
48454;DHT22;34261;55.678;12.464;2023-07-24T13:43:02;23.50;99.90
48454;DHT22;34261;55.678;12.464;2023-07-24T13:45:28;23.50;99.90
48454;DHT22;34261;55.678;12.464;2023-07-24T13:47:56;23.70;99.90
48454;DHT22;34261;55.678;12.464;2023-07-24T13:50:22;24.20;99.90
48454;DHT22;34261;55.678;12.464;2023-07-24T13:52:47;24.00;99.90
48454;DHT22;34261;55.678;12.464;2023-07-24T13:55:13;23.70;99.90
48454;DHT22;34261;55.678;12.464;2023-07-24T13:57:39;23.80;99.90
48454;DHT22;34261;55.678;12.464;2023-07-24T14:00:05;23.90;99.90
48454;DHT22;34261;55.678;12.464;2023-07-24T14:02:31;24.10;99.90
48454;DHT22;34261;55.678;12.464;2023-07-24T14:04:56;24.20;99.90
48454;DHT22;34261;55.678;12.464;2023-07-24T14:07:22;24.10;99.90
48454;DHT22;34261;55.678;12.464;2023-07-24T14:09:48;24.10;99.90
48454;DHT22;34261;55.678;12.464;2023-07-24T14:12:13;24.10;99.90
48454;DHT22;34261;55.678;12.464;2023-07-24T14:14:39;23.80;99.90
48454;DHT22;34261;55.678;12.464;2023-07-24T14:17:04;23.90;99.90
48454;DHT22;34261;55.678;12.464;2023-07-24T14:19:30;24.00;99.90
48454;DHT22;34261;55.678;12.464;2023-07-24T14:21:56;24.10;99.90
48454;DHT22;34261;55.678;12.464;2023-07-24T14:24:21;24.20;99.90
48454;DHT22;34261;55.678;12.464;2023-07-24T14:26:47;23.90;99.90
48454;DHT22;34261;55.678;12.464;2023-07-24T14:29:13;23.80;99.80
48454;DHT22;34261;55.678;12.464;2023-07-24T14:31:38;23.80;99.90
48454;DHT22;34261;55.678;12.464;2023-07-24T14:34:04;23.70;99.90
48454;DHT22;34261;55.678;12.464;2023-07-24T14:36:30;23.90;99.90
48454;DHT22;34261;55.678;12.464;2023-07-24T14:39:03;24.30;99.90
48454;DHT22;34261;55.678;12.464;2023-07-24T14:41:28;24.70;99.20
48454;DHT22;34261;55.678;12.464;2023-07-24T14:43:54;24.70;99.90
48454;DHT22;34261;55.678;12.464;2023-07-24T14:46:19;25.00;99.20
48454;DHT22;34261;55.678;12.464;2023-07-24T14:48:45;24.80;99.40
48454;DHT22;34261;55.678;12.464;2023-07-24T14:51:10;24.40;99.50
48454;DHT22;34261;55.678;12.464;2023-07-24T14:53:36;24.40;99.90
48454;DHT22;34261;55.678;12.464;2023-07-24T14:56:03;24.60;99.30
48454;DHT22;34261;55.678;12.464;2023-07-24T14:58:28;24.90;99.00
48454;DHT22;34261;55.678;12.464;2023-07-24T15:00:54;25.10;99.40
48454;DHT22;34261;55.678;12.464;2023-07-24T15:03:19;25.30;99.00
48454;DHT22;34261;55.678;12.464;2023-07-24T15:05:45;25.10;98.90
48454;DHT22;34261;55.678;12.464;2023-07-24T15:08:10;25.00;99.20
48454;DHT22;34261;55.678;12.464;2023-07-24T15:10:36;25.00;99.00
48454;DHT22;34261;55.678;12.464;2023-07-24T15:13:01;24.70;99.00
48454;DHT22;34261;55.678;12.464;2023-07-24T15:15:27;24.50;99.40
48454;DHT22;34261;55.678;12.464;2023-07-24T15:17:52;24.50;99.80